sensor_id;sensor_type;location;lat;lon;timestamp;temperature;humidity
18043;DHT22;9146;48.074;11.968;2024-03-02T00:00:56;5.40;99.90
18043;DHT22;9146;48.074;11.968;2024-03-02T00:03:25;5.40;99.90
18043;DHT22;9146;48.074;11.968;2024-03-02T00:05:52;5.40;99.90
18043;DHT22;9146;48.074;11.968;2024-03-02T00:08:24;5.30;99.90
18043;DHT22;9146;48.074;11.968;2024-03-02T00:10:52;5.30;99.90
18043;DHT22;9146;48.074;11.968;2024-03-02T00:13:23;5.30;99.90
18043;DHT22;9146;48.074;11.968;2024-03-02T00:15:52;5.30;99.90
18043;DHT22;9146;48.074;11.968;2024-03-02T00:18:21;5.20;99.90
18043;DHT22;9146;48.074;11.968;2024-03-02T00:20:53;5.20;99.90
18043;DHT22;9146;48.074;11.968;2024-03-02T00:23:20;5.20;99.90
18043;DHT22;9146;48.074;11.968;2024-03-02T00:25:49;5.20;99.90
18043;DHT22;9146;48.074;11.968;2024-03-02T00:28:20;5.10;99.90
18043;DHT22;9146;48.074;11.968;2024-03-02T00:30:58;5.10;99.90
18043;DHT22;9146;48.074;11.968;2024-03-02T00:33:27;5.10;99.90
18043;DHT22;9146;48.074;11.968;2024-03-02T00:35:56;5.00;99.90
18043;DHT22;9146;48.074;11.968;2024-03-02T00:38:25;5.00;99.90
18043;DHT22;9146;48.074;11.968;2024-03-02T00:40:53;5.00;99.90
18043;DHT22;9146;48.074;11.968;2024-03-02T00:43:40;5.00;99.90
18043;DHT22;9146;48.074;11.968;2024-03-02T00:46:07;5.00;99.90
18043;DHT22;9146;48.074;11.968;2024-03-02T00:48:34;5.00;99.90
18043;DHT22;9146;48.074;11.968;2024-03-02T00:51:04;4.90;99.90
18043;DHT22;9146;48.074;11.968;2024-03-02T00:53:32;5.00;99.90
18043;DHT22;9146;48.074;11.968;2024-03-02T00:55:59;4.90;99.90
18043;DHT22;9146;48.074;11.968;2024-03-02T00:58:26;4.90;99.90
18043;DHT22;9146;48.074;11.968;2024-03-02T01:00:53;4.90;99.90
18043;DHT22;9146;48.074;11.968;2024-03-02T01:03:21;4.90;99.90
18043;DHT22;9146;48.074;11.968;2024-03-02T01:05:48;4.90;99.90
18043;DHT22;9146;48.074;11.968;2024-03-02T01:08:16;4.90;99.90
18043;DHT22;9146;48.074;11.968;2024-03-02T01:10:43;4.90;99.90
18043;DHT22;9146;48.074;11.968;2024-03-02T01:13:10;4.90;99.90
18043;DHT22;9146;48.074;11.968;2024-03-02T01:15:37;4.90;99.90
18043;DHT22;9146;48.074;11.968;2024-03-02T01:18:04;4.80;99.90
18043;DHT22;9146;48.074;11.968;2024-03-02T01:20:31;4.80;99.90
18043;DHT22;9146;48.074;11.968;2024-03-02T01:22:58;4.80;99.90
18043;DHT22;9146;48.074;11.968;2024-03-02T01:25:27;4.80;99.90
18043;DHT22;9146;48.074;11.968;2024-03-02T01:27:54;4.80;99.90
18043;DHT22;9146;48.074;11.968;2024-03-02T01:30:20;4.80;99.90
18043;DHT22;9146;48.074;11.968;2024-03-02T01:32:48;4.80;99.90
18043;DHT22;9146;48.074;11.968;2024-03-02T01:35:15;4.70;99.90
18043;DHT22;9146;48.074;11.968;2024-03-02T01:37:42;4.70;99.90
18043;DHT22;9146;48.074;11.968;2024-03-02T01:40:10;4.70;99.90
18043;DHT22;9146;48.074;11.968;2024-03-02T01:42:39;4.70;99.90
18043;DHT22;9146;48.074;11.968;2024-03-02T01:45:07;4.70;99.90
18043;DHT22;9146;48.074;11.968;2024-03-02T01:47:34;4.70;99.90
18043;DHT22;9146;48.074;11.968;2024-03-02T01:50:02;4.70;99.90
18043;DHT22;9146;48.074;11.968;2024-03-02T01:52:29;4.70;99.90
18043;DHT22;9146;48.074;11.968;2024-03-02T01:54:56;4.60;99.90
18043;DHT22;9146;48.074;11.968;2024-03-02T01:57:23;4.70;99.90
18043;DHT22;9146;48.074;11.968;2024-03-02T01:59:51;4.70;99.90
18043;DHT22;9146;48.074;11.968;2024-03-02T02:02:18;4.70;99.90
18043;DHT22;9146;48.074;11.968;2024-03-02T02:04:46;4.70;99.90
18043;DHT22;9146;48.074;11.968;2024-03-02T02:07:13;4.70;99.90
18043;DHT22;9146;48.074;11.968;2024-03-02T02:09:41;4.70;99.90
18043;DHT22;9146;48.074;11.968;2024-03-02T02:12:09;4.60;99.90
18043;DHT22;9146;48.074;11.968;2024-03-02T02:14:37;4.70;99.90
18043;DHT22;9146;48.074;11.968;2024-03-02T02:17:07;4.60;99.90
18043;DHT22;9146;48.074;11.968;2024-03-02T02:19:33;4.60;99.90
18043;DHT22;9146;48.074;11.968;2024-03-02T02:22:02;4.60;99.90
18043;DHT22;9146;48.074;11.968;2024-03-02T02:24:28;4.50;99.90
18043;DHT22;9146;48.074;11.968;2024-03-02T02:26:55;4.50;99.90
18043;DHT22;9146;48.074;11.968;2024-03-02T02:29:22;4.50;99.90
18043;DHT22;9146;48.074;11.968;2024-03-02T02:31:49;4.50;99.90
18043;DHT22;9146;48.074;11.968;2024-03-02T02:34:16;4.50;99.90
18043;DHT22;9146;48.074;11.968;2024-03-02T02:36:44;4.50;99.90
18043;DHT22;9146;48.074;11.968;2024-03-02T02:39:15;4.50;99.90
18043;DHT22;9146;48.074;11.968;2024-03-02T02:41:43;4.50;99.90
18043;DHT22;9146;48.074;11.968;2024-03-02T02:44:10;4.40;99.90
18043;DHT22;9146;48.074;11.968;2024-03-02T02:46:38;4.40;99.90
18043;DHT22;9146;48.074;11.968;2024-03-02T02:49:05;4.40;99.90
18043;DHT22;9146;48.074;11.968;2024-03-02T02:51:32;4.40;99.90
18043;DHT22;9146;48.074;11.968;2024-03-02T02:53:59;4.40;99.90
18043;DHT22;9146;48.074;11.968;2024-03-02T02:56:28;4.40;99.90
18043;DHT22;9146;48.074;11.968;2024-03-02T02:58:55;4.40;99.90
18043;DHT22;9146;48.074;11.968;2024-03-02T03:01:22;4.40;99.90
18043;DHT22;9146;48.074;11.968;2024-03-02T03:03:49;4.40;99.90
18043;DHT22;9146;48.074;11.968;2024-03-02T03:06:16;4.40;99.90
18043;DHT22;9146;48.074;11.968;2024-03-02T03:08:43;4.40;99.90
18043;DHT22;9146;48.074;11.968;2024-03-02T03:11:10;4.40;99.90
18043;DHT22;9146;48.074;11.968;2024-03-02T03:13:38;4.30;99.90
18043;DHT22;9146;48.074;11.968;2024-03-02T03:16:05;4.40;99.90
18043;DHT22;9146;48.074;11.968;2024-03-02T03:18:32;4.30;99.90
18043;DHT22;9146;48.074;11.968;2024-03-02T03:20:59;4.30;99.90
18043;DHT22;9146;48.074;11.968;2024-03-02T03:23:26;4.30;99.90
18043;DHT22;9146;48.074;11.968;2024-03-02T03:25:53;4.30;99.90
18043;DHT22;9146;48.074;11.968;2024-03-02T03:28:20;4.20;99.90
18043;DHT22;9146;48.074;11.968;2024-03-02T03:30:48;4.20;99.90
18043;DHT22;9146;48.074;11.968;2024-03-02T03:33:15;4.20;99.90
18043;DHT22;9146;48.074;11.968;2024-03-02T03:35:42;4.20;99.90
18043;DHT22;9146;48.074;11.968;2024-03-02T03:38:09;4.20;99.90
18043;DHT22;9146;48.074;11.968;2024-03-02T03:40:36;4.10;99.90
18043;DHT22;9146;48.074;11.968;2024-03-02T03:43:03;4.20;99.90
18043;DHT22;9146;48.074;11.968;2024-03-02T03:45:30;4.20;99.90
18043;DHT22;9146;48.074;11.968;2024-03-02T03:47:58;4.10;99.90
18043;DHT22;9146;48.074;11.968;2024-03-02T03:50:25;4.10;99.90
18043;DHT22;9146;48.074;11.968;2024-03-02T03:52:52;4.10;99.90
18043;DHT22;9146;48.074;11.968;2024-03-02T03:55:19;4.10;99.90
18043;DHT22;9146;48.074;11.968;2024-03-02T03:57:46;4.10;99.90
18043;DHT22;9146;48.074;11.968;2024-03-02T04:00:14;4.10;99.90
18043;DHT22;9146;48.074;11.968;2024-03-02T04:02:41;4.20;99.90
18043;DHT22;9146;48.074;11.968;2024-03-02T04:05:09;4.10;99.90
18043;DHT22;9146;48.074;11.968;2024-03-02T04:07:37;4.20;99.90
18043;DHT22;9146;48.074;11.968;2024-03-02T04:10:08;4.20;99.90
18043;DHT22;9146;48.074;11.968;2024-03-02T04:12:36;4.20;99.90
18043;DHT22;9146;48.074;11.968;2024-03-02T04:15:04;4.20;99.90
18043;DHT22;9146;48.074;11.968;2024-03-02T04:17:32;4.20;99.90
18043;DHT22;9146;48.074;11.968;2024-03-02T04:20:01;4.30;99.90
18043;DHT22;9146;48.074;11.968;2024-03-02T04:22:33;4.30;99.90
18043;DHT22;9146;48.074;11.968;2024-03-02T04:25:01;4.30;99.90
18043;DHT22;9146;48.074;11.968;2024-03-02T04:27:30;4.30;99.90
18043;DHT22;9146;48.074;11.968;2024-03-02T04:29:57;4.30;99.90
18043;DHT22;9146;48.074;11.968;2024-03-02T04:32:25;4.40;99.90
18043;DHT22;9146;48.074;11.968;2024-03-02T04:34:52;4.40;99.90
18043;DHT22;9146;48.074;11.968;2024-03-02T04:37:19;4.40;99.90
18043;DHT22;9146;48.074;11.968;2024-03-02T04:39:47;4.40;99.90
18043;DHT22;9146;48.074;11.968;2024-03-02T04:42:14;4.40;99.90
18043;DHT22;9146;48.074;11.968;2024-03-02T04:44:41;4.40;99.90
18043;DHT22;9146;48.074;11.968;2024-03-02T04:47:09;4.40;99.90
18043;DHT22;9146;48.074;11.968;2024-03-02T04:49:36;4.40;99.90
18043;DHT22;9146;48.074;11.968;2024-03-02T04:52:03;4.40;99.90
18043;DHT22;9146;48.074;11.968;2024-03-02T04:54:30;4.50;99.90
18043;DHT22;9146;48.074;11.968;2024-03-02T04:56:59;4.50;99.90
18043;DHT22;9146;48.074;11.968;2024-03-02T04:59:26;4.50;99.90
18043;DHT22;9146;48.074;11.968;2024-03-02T05:01:52;4.50;99.90
18043;DHT22;9146;48.074;11.968;2024-03-02T05:04:19;4.50;99.90
18043;DHT22;9146;48.074;11.968;2024-03-02T05:06:46;4.50;99.90
18043;DHT22;9146;48.074;11.968;2024-03-02T05:09:18;4.50;99.90
18043;DHT22;9146;48.074;11.968;2024-03-02T05:11:46;4.50;99.90
18043;DHT22;9146;48.074;11.968;2024-03-02T05:14:26;4.50;99.90
18043;DHT22;9146;48.074;11.968;2024-03-02T05:16:52;4.50;99.90
18043;DHT22;9146;48.074;11.968;2024-03-02T05:19:19;4.60;99.90
18043;DHT22;9146;48.074;11.968;2024-03-02T05:21:46;4.60;99.90
18043;DHT22;9146;48.074;11.968;2024-03-02T05:24:14;4.60;99.90
18043;DHT22;9146;48.074;11.968;2024-03-02T05:26:41;4.60;99.90
18043;DHT22;9146;48.074;11.968;2024-03-02T05:29:08;4.60;99.90
18043;DHT22;9146;48.074;11.968;2024-03-02T05:31:36;4.60;99.90
18043;DHT22;9146;48.074;11.968;2024-03-02T05:34:03;4.60;99.90
18043;DHT22;9146;48.074;11.968;2024-03-02T05:36:30;4.70;99.90
18043;DHT22;9146;48.074;11.968;2024-03-02T05:38:57;4.70;99.90
18043;DHT22;9146;48.074;11.968;2024-03-02T05:41:24;4.70;99.90
18043;DHT22;9146;48.074;11.968;2024-03-02T05:43:51;4.60;99.90
18043;DHT22;9146;48.074;11.968;2024-03-02T05:46:18;4.60;99.90
18043;DHT22;9146;48.074;11.968;2024-03-02T05:48:46;4.70;99.90
18043;DHT22;9146;48.074;11.968;2024-03-02T05:51:13;4.60;99.90
18043;DHT22;9146;48.074;11.968;2024-03-02T05:53:40;4.60;99.90
18043;DHT22;9146;48.074;11.968;2024-03-02T05:56:07;4.60;99.90
18043;DHT22;9146;48.074;11.968;2024-03-02T05:58:34;4.60;99.90
18043;DHT22;9146;48.074;11.968;2024-03-02T06:01:15;4.60;99.90
18043;DHT22;9146;48.074;11.968;2024-03-02T06:03:43;4.60;99.90
18043;DHT22;9146;48.074;11.968;2024-03-02T06:06:11;4.60;99.90
18043;DHT22;9146;48.074;11.968;2024-03-02T06:08:38;4.60;99.90
18043;DHT22;9146;48.074;11.968;2024-03-02T06:11:05;4.50;99.90
18043;DHT22;9146;48.074;11.968;2024-03-02T06:13:32;4.60;99.90
18043;DHT22;9146;48.074;11.968;2024-03-02T06:15:59;4.60;99.90
18043;DHT22;9146;48.074;11.968;2024-03-02T06:18:26;4.60;99.90
18043;DHT22;9146;48.074;11.968;2024-03-02T06:20:53;4.60;99.90
18043;DHT22;9146;48.074;11.968;2024-03-02T06:23:21;4.60;99.90
18043;DHT22;9146;48.074;11.968;2024-03-02T06:25:48;4.70;99.90
18043;DHT22;9146;48.074;11.968;2024-03-02T06:28:15;4.70;99.90
18043;DHT22;9146;48.074;11.968;2024-03-02T06:30:42;4.80;99.90
18043;DHT22;9146;48.074;11.968;2024-03-02T06:33:09;4.80;99.90
18043;DHT22;9146;48.074;11.968;2024-03-02T06:35:36;4.90;99.90
18043;DHT22;9146;48.074;11.968;2024-03-02T06:38:03;4.90;99.90
18043;DHT22;9146;48.074;11.968;2024-03-02T06:40:32;5.00;99.90
18043;DHT22;9146;48.074;11.968;2024-03-02T06:42:59;5.10;99.90
18043;DHT22;9146;48.074;11.968;2024-03-02T06:45:26;5.10;99.90
18043;DHT22;9146;48.074;11.968;2024-03-02T06:47:54;5.10;99.90
18043;DHT22;9146;48.074;11.968;2024-03-02T06:50:21;5.20;99.90
18043;DHT22;9146;48.074;11.968;2024-03-02T06:52:48;5.20;99.90
18043;DHT22;9146;48.074;11.968;2024-03-02T06:55:15;5.20;99.90
18043;DHT22;9146;48.074;11.968;2024-03-02T06:57:44;5.20;99.90
18043;DHT22;9146;48.074;11.968;2024-03-02T07:00:12;5.30;99.90
18043;DHT22;9146;48.074;11.968;2024-03-02T07:02:39;5.30;99.90
18043;DHT22;9146;48.074;11.968;2024-03-02T07:05:07;5.40;99.90
18043;DHT22;9146;48.074;11.968;2024-03-02T07:07:34;5.40;99.90
18043;DHT22;9146;48.074;11.968;2024-03-02T07:10:02;5.50;99.90
18043;DHT22;9146;48.074;11.968;2024-03-02T07:12:30;5.60;99.90
18043;DHT22;9146;48.074;11.968;2024-03-02T07:14:59;5.70;99.90
18043;DHT22;9146;48.074;11.968;2024-03-02T07:17:50;5.80;99.90
18043;DHT22;9146;48.074;11.968;2024-03-02T07:20:17;5.90;99.90
18043;DHT22;9146;48.074;11.968;2024-03-02T07:22:44;5.90;99.90
18043;DHT22;9146;48.074;11.968;2024-03-02T07:25:11;6.00;99.90
18043;DHT22;9146;48.074;11.968;2024-03-02T07:27:39;6.00;99.90
18043;DHT22;9146;48.074;11.968;2024-03-02T07:30:08;6.10;99.90
18043;DHT22;9146;48.074;11.968;2024-03-02T07:32:36;6.20;99.90
18043;DHT22;9146;48.074;11.968;2024-03-02T07:35:03;6.20;99.90
18043;DHT22;9146;48.074;11.968;2024-03-02T07:37:31;6.30;99.90
18043;DHT22;9146;48.074;11.968;2024-03-02T07:39:58;6.30;99.90
18043;DHT22;9146;48.074;11.968;2024-03-02T07:42:25;6.40;99.90
18043;DHT22;9146;48.074;11.968;2024-03-02T07:44:52;6.40;99.90
18043;DHT22;9146;48.074;11.968;2024-03-02T07:47:20;6.50;99.90
18043;DHT22;9146;48.074;11.968;2024-03-02T07:49:47;6.50;99.90
18043;DHT22;9146;48.074;11.968;2024-03-02T07:52:14;6.60;99.90
18043;DHT22;9146;48.074;11.968;2024-03-02T07:54:41;6.70;99.90
18043;DHT22;9146;48.074;11.968;2024-03-02T07:57:08;6.70;99.90
18043;DHT22;9146;48.074;11.968;2024-03-02T07:59:36;6.80;99.90
18043;DHT22;9146;48.074;11.968;2024-03-02T08:02:04;6.80;99.90
18043;DHT22;9146;48.074;11.968;2024-03-02T08:04:32;6.90;99.90
18043;DHT22;9146;48.074;11.968;2024-03-02T08:06:59;6.90;99.90
18043;DHT22;9146;48.074;11.968;2024-03-02T08:09:26;6.90;99.90
18043;DHT22;9146;48.074;11.968;2024-03-02T08:11:53;7.00;99.90
18043;DHT22;9146;48.074;11.968;2024-03-02T08:14:22;7.10;99.90
18043;DHT22;9146;48.074;11.968;2024-03-02T08:16:48;7.10;99.90
18043;DHT22;9146;48.074;11.968;2024-03-02T08:19:16;7.20;99.90
18043;DHT22;9146;48.074;11.968;2024-03-02T08:21:44;7.20;99.90
18043;DHT22;9146;48.074;11.968;2024-03-02T08:24:11;7.30;99.90
18043;DHT22;9146;48.074;11.968;2024-03-02T08:26:38;7.40;99.90
18043;DHT22;9146;48.074;11.968;2024-03-02T08:29:05;7.40;99.90
18043;DHT22;9146;48.074;11.968;2024-03-02T08:31:32;7.50;99.90
18043;DHT22;9146;48.074;11.968;2024-03-02T08:33:59;7.60;99.90
18043;DHT22;9146;48.074;11.968;2024-03-02T08:36:26;7.70;99.90
18043;DHT22;9146;48.074;11.968;2024-03-02T08:38:54;7.80;99.90
18043;DHT22;9146;48.074;11.968;2024-03-02T08:41:21;7.90;99.90
18043;DHT22;9146;48.074;11.968;2024-03-02T08:43:48;8.10;99.90
18043;DHT22;9146;48.074;11.968;2024-03-02T08:46:15;8.10;99.90
18043;DHT22;9146;48.074;11.968;2024-03-02T08:48:42;8.20;99.90
18043;DHT22;9146;48.074;11.968;2024-03-02T08:51:09;8.30;99.90
18043;DHT22;9146;48.074;11.968;2024-03-02T08:53:36;8.40;99.90
18043;DHT22;9146;48.074;11.968;2024-03-02T08:56:06;8.40;99.90
18043;DHT22;9146;48.074;11.968;2024-03-02T08:58:33;8.40;99.90
18043;DHT22;9146;48.074;11.968;2024-03-02T09:01:01;8.40;99.90
18043;DHT22;9146;48.074;11.968;2024-03-02T09:03:29;8.30;99.90
18043;DHT22;9146;48.074;11.968;2024-03-02T09:05:58;8.20;99.90
18043;DHT22;9146;48.074;11.968;2024-03-02T09:08:25;8.10;99.90
18043;DHT22;9146;48.074;11.968;2024-03-02T09:10:53;8.00;99.90
18043;DHT22;9146;48.074;11.968;2024-03-02T09:13:21;8.00;99.90
18043;DHT22;9146;48.074;11.968;2024-03-02T09:15:48;7.90;99.90
18043;DHT22;9146;48.074;11.968;2024-03-02T09:18:15;7.90;99.90
18043;DHT22;9146;48.074;11.968;2024-03-02T09:20:42;7.90;99.90
18043;DHT22;9146;48.074;11.968;2024-03-02T09:23:09;7.90;99.90
18043;DHT22;9146;48.074;11.968;2024-03-02T09:25:36;7.90;99.90
18043;DHT22;9146;48.074;11.968;2024-03-02T09:28:03;8.00;99.90
18043;DHT22;9146;48.074;11.968;2024-03-02T09:30:32;8.10;99.90
18043;DHT22;9146;48.074;11.968;2024-03-02T09:32:59;8.20;99.90
18043;DHT22;9146;48.074;11.968;2024-03-02T09:35:26;8.30;99.90
18043;DHT22;9146;48.074;11.968;2024-03-02T09:37:53;8.40;99.90
18043;DHT22;9146;48.074;11.968;2024-03-02T09:40:22;8.50;99.90
18043;DHT22;9146;48.074;11.968;2024-03-02T09:42:49;8.70;99.90
18043;DHT22;9146;48.074;11.968;2024-03-02T09:45:23;8.80;99.90
18043;DHT22;9146;48.074;11.968;2024-03-02T09:47:51;8.90;99.90
18043;DHT22;9146;48.074;11.968;2024-03-02T09:50:18;9.00;99.90
18043;DHT22;9146;48.074;11.968;2024-03-02T09:52:48;9.10;99.90
18043;DHT22;9146;48.074;11.968;2024-03-02T09:55:16;9.20;99.90
18043;DHT22;9146;48.074;11.968;2024-03-02T09:57:43;9.30;99.90
18043;DHT22;9146;48.074;11.968;2024-03-02T10:00:11;9.40;99.90
18043;DHT22;9146;48.074;11.968;2024-03-02T10:02:40;9.50;99.90
18043;DHT22;9146;48.074;11.968;2024-03-02T10:05:09;9.60;99.90
18043;DHT22;9146;48.074;11.968;2024-03-02T10:07:37;9.70;99.90
18043;DHT22;9146;48.074;11.968;2024-03-02T10:10:13;9.70;99.90
18043;DHT22;9146;48.074;11.968;2024-03-02T10:12:40;9.80;99.90
18043;DHT22;9146;48.074;11.968;2024-03-02T10:15:08;9.90;99.90
18043;DHT22;9146;48.074;11.968;2024-03-02T10:17:35;9.80;99.90
18043;DHT22;9146;48.074;11.968;2024-03-02T10:20:25;9.80;99.90
18043;DHT22;9146;48.074;11.968;2024-03-02T10:22:54;9.90;99.90
18043;DHT22;9146;48.074;11.968;2024-03-02T10:25:31;10.00;99.90
18043;DHT22;9146;48.074;11.968;2024-03-02T10:27:58;9.90;99.90
18043;DHT22;9146;48.074;11.968;2024-03-02T10:30:26;10.00;99.90
18043;DHT22;9146;48.074;11.968;2024-03-02T10:32:53;10.00;99.90
18043;DHT22;9146;48.074;11.968;2024-03-02T10:35:22;10.00;99.90
18043;DHT22;9146;48.074;11.968;2024-03-02T10:37:52;10.00;99.90
18043;DHT22;9146;48.074;11.968;2024-03-02T10:40:21;10.10;99.90
18043;DHT22;9146;48.074;11.968;2024-03-02T10:42:49;10.10;99.90
18043;DHT22;9146;48.074;11.968;2024-03-02T10:45:17;10.10;99.90
18043;DHT22;9146;48.074;11.968;2024-03-02T10:47:47;10.10;99.90
18043;DHT22;9146;48.074;11.968;2024-03-02T10:50:14;10.10;99.90
18043;DHT22;9146;48.074;11.968;2024-03-02T10:52:42;10.20;99.90
18043;DHT22;9146;48.074;11.968;2024-03-02T10:55:10;10.30;99.90
18043;DHT22;9146;48.074;11.968;2024-03-02T10:57:42;10.30;99.90
18043;DHT22;9146;48.074;11.968;2024-03-02T11:00:12;10.30;99.90
18043;DHT22;9146;48.074;11.968;2024-03-02T11:02:45;10.30;99.90
18043;DHT22;9146;48.074;11.968;2024-03-02T11:05:21;10.40;99.90
18043;DHT22;9146;48.074;11.968;2024-03-02T11:07:53;10.40;99.90
18043;DHT22;9146;48.074;11.968;2024-03-02T11:10:25;10.50;99.90
18043;DHT22;9146;48.074;11.968;2024-03-02T11:13:00;10.50;99.90
18043;DHT22;9146;48.074;11.968;2024-03-02T11:15:30;10.50;99.90
18043;DHT22;9146;48.074;11.968;2024-03-02T11:17:58;10.50;99.90
18043;DHT22;9146;48.074;11.968;2024-03-02T11:20:26;10.60;99.90
18043;DHT22;9146;48.074;11.968;2024-03-02T11:22:54;10.60;99.90
18043;DHT22;9146;48.074;11.968;2024-03-02T11:25:26;10.70;99.90
18043;DHT22;9146;48.074;11.968;2024-03-02T11:28:01;10.80;99.90
18043;DHT22;9146;48.074;11.968;2024-03-02T11:30:50;10.80;99.90
18043;DHT22;9146;48.074;11.968;2024-03-02T11:33:23;10.90;99.90
18043;DHT22;9146;48.074;11.968;2024-03-02T11:35:52;10.90;99.90
18043;DHT22;9146;48.074;11.968;2024-03-02T11:38:19;10.80;99.90
18043;DHT22;9146;48.074;11.968;2024-03-02T11:40:48;10.80;99.90
18043;DHT22;9146;48.074;11.968;2024-03-02T11:43:15;10.80;99.90
18043;DHT22;9146;48.074;11.968;2024-03-02T11:45:43;10.70;99.90
18043;DHT22;9146;48.074;11.968;2024-03-02T11:48:11;10.70;99.90
18043;DHT22;9146;48.074;11.968;2024-03-02T11:50:41;10.70;99.90
18043;DHT22;9146;48.074;11.968;2024-03-02T11:53:10;10.70;99.90
18043;DHT22;9146;48.074;11.968;2024-03-02T11:55:39;10.60;99.90
18043;DHT22;9146;48.074;11.968;2024-03-02T11:58:08;10.60;99.90
18043;DHT22;9146;48.074;11.968;2024-03-02T12:00:35;10.60;99.90
18043;DHT22;9146;48.074;11.968;2024-03-02T12:03:04;10.50;99.90
18043;DHT22;9146;48.074;11.968;2024-03-02T12:05:33;10.50;99.90
18043;DHT22;9146;48.074;11.968;2024-03-02T12:08:01;10.40;99.90
18043;DHT22;9146;48.074;11.968;2024-03-02T12:10:30;10.30;99.90
18043;DHT22;9146;48.074;11.968;2024-03-02T12:12:57;10.20;99.90
18043;DHT22;9146;48.074;11.968;2024-03-02T12:15:28;10.20;99.90
18043;DHT22;9146;48.074;11.968;2024-03-02T12:17:55;10.10;99.90
18043;DHT22;9146;48.074;11.968;2024-03-02T12:20:22;10.00;99.90
18043;DHT22;9146;48.074;11.968;2024-03-02T12:22:51;10.00;99.90
18043;DHT22;9146;48.074;11.968;2024-03-02T12:25:19;10.10;99.90
18043;DHT22;9146;48.074;11.968;2024-03-02T12:27:47;10.10;99.90
18043;DHT22;9146;48.074;11.968;2024-03-02T12:30:16;10.10;99.90
18043;DHT22;9146;48.074;11.968;2024-03-02T12:32:45;10.20;99.90
18043;DHT22;9146;48.074;11.968;2024-03-02T12:35:14;10.20;99.90
18043;DHT22;9146;48.074;11.968;2024-03-02T12:37:44;10.30;99.90
18043;DHT22;9146;48.074;11.968;2024-03-02T12:40:11;10.30;99.90
18043;DHT22;9146;48.074;11.968;2024-03-02T12:42:39;10.30;99.90
18043;DHT22;9146;48.074;11.968;2024-03-02T12:45:06;10.30;99.90
18043;DHT22;9146;48.074;11.968;2024-03-02T12:47:34;10.20;99.90
18043;DHT22;9146;48.074;11.968;2024-03-02T12:50:03;10.20;99.90
18043;DHT22;9146;48.074;11.968;2024-03-02T12:52:30;10.10;99.90
18043;DHT22;9146;48.074;11.968;2024-03-02T12:54:59;10.00;99.90
18043;DHT22;9146;48.074;11.968;2024-03-02T12:57:26;9.90;99.90
18043;DHT22;9146;48.074;11.968;2024-03-02T12:59:58;9.80;99.90
18043;DHT22;9146;48.074;11.968;2024-03-02T13:02:28;9.70;99.90
18043;DHT22;9146;48.074;11.968;2024-03-02T13:04:55;9.60;99.90
18043;DHT22;9146;48.074;11.968;2024-03-02T13:07:24;9.50;99.90
18043;DHT22;9146;48.074;11.968;2024-03-02T13:09:51;9.50;99.90
18043;DHT22;9146;48.074;11.968;2024-03-02T13:12:19;9.40;99.90
18043;DHT22;9146;48.074;11.968;2024-03-02T13:14:48;9.40;99.90
18043;DHT22;9146;48.074;11.968;2024-03-02T13:17:17;9.30;99.90
18043;DHT22;9146;48.074;11.968;2024-03-02T13:19:51;9.30;99.90
18043;DHT22;9146;48.074;11.968;2024-03-02T13:22:19;9.30;99.90
18043;DHT22;9146;48.074;11.968;2024-03-02T13:24:48;9.30;99.90
18043;DHT22;9146;48.074;11.968;2024-03-02T13:27:15;9.20;99.90
18043;DHT22;9146;48.074;11.968;2024-03-02T13:29:45;9.30;99.90
18043;DHT22;9146;48.074;11.968;2024-03-02T13:32:12;9.20;99.90
18043;DHT22;9146;48.074;11.968;2024-03-02T13:34:39;9.30;99.90
18043;DHT22;9146;48.074;11.968;2024-03-02T13:37:06;9.30;99.90
18043;DHT22;9146;48.074;11.968;2024-03-02T13:39:34;9.40;99.90
18043;DHT22;9146;48.074;11.968;2024-03-02T13:42:07;9.40;99.90
18043;DHT22;9146;48.074;11.968;2024-03-02T13:44:34;9.50;99.90
18043;DHT22;9146;48.074;11.968;2024-03-02T13:47:02;9.50;99.90
18043;DHT22;9146;48.074;11.968;2024-03-02T13:49:29;9.60;99.90
18043;DHT22;9146;48.074;11.968;2024-03-02T13:52:02;9.70;99.90
18043;DHT22;9146;48.074;11.968;2024-03-02T13:54:37;9.70;99.90
18043;DHT22;9146;48.074;11.968;2024-03-02T13:57:04;9.80;99.90
18043;DHT22;9146;48.074;11.968;2024-03-02T13:59:33;9.90;99.90
18043;DHT22;9146;48.074;11.968;2024-03-02T14:02:00;9.90;99.90
18043;DHT22;9146;48.074;11.968;2024-03-02T14:04:27;10.00;99.90
18043;DHT22;9146;48.074;11.968;2024-03-02T14:06:55;9.90;99.90
18043;DHT22;9146;48.074;11.968;2024-03-02T14:09:22;10.10;99.90
18043;DHT22;9146;48.074;11.968;2024-03-02T14:11:50;10.20;99.90
18043;DHT22;9146;48.074;11.968;2024-03-02T14:14:17;10.20;99.90
18043;DHT22;9146;48.074;11.968;2024-03-02T14:16:46;10.20;99.90
18043;DHT22;9146;48.074;11.968;2024-03-02T14:19:13;10.20;99.90
18043;DHT22;9146;48.074;11.968;2024-03-02T14:21:40;10.30;99.90
18043;DHT22;9146;48.074;11.968;2024-03-02T14:24:07;10.30;99.90
18043;DHT22;9146;48.074;11.968;2024-03-02T14:26:35;10.40;99.90
18043;DHT22;9146;48.074;11.968;2024-03-02T14:29:02;10.40;99.90
18043;DHT22;9146;48.074;11.968;2024-03-02T14:31:29;10.50;99.90
18043;DHT22;9146;48.074;11.968;2024-03-02T14:33:58;10.50;99.90
18043;DHT22;9146;48.074;11.968;2024-03-02T14:36:25;10.50;99.90
18043;DHT22;9146;48.074;11.968;2024-03-02T14:38:53;10.60;99.90
18043;DHT22;9146;48.074;11.968;2024-03-02T14:41:21;10.60;99.90
18043;DHT22;9146;48.074;11.968;2024-03-02T14:43:49;10.60;99.90
18043;DHT22;9146;48.074;11.968;2024-03-02T14:46:16;10.60;99.90
18043;DHT22;9146;48.074;11.968;2024-03-02T14:48:44;10.60;99.90
18043;DHT22;9146;48.074;11.968;2024-03-02T14:51:13;10.70;99.90
18043;DHT22;9146;48.074;11.968;2024-03-02T14:53:40;10.70;99.90
18043;DHT22;9146;48.074;11.968;2024-03-02T14:56:09;10.70;99.90
18043;DHT22;9146;48.074;11.968;2024-03-02T14:58:38;10.80;99.90
18043;DHT22;9146;48.074;11.968;2024-03-02T15:01:05;10.80;99.90
18043;DHT22;9146;48.074;11.968;2024-03-02T15:03:34;10.70;99.90
18043;DHT22;9146;48.074;11.968;2024-03-02T15:06:02;10.70;99.90
18043;DHT22;9146;48.074;11.968;2024-03-02T15:08:31;10.70;99.90
18043;DHT22;9146;48.074;11.968;2024-03-02T15:10:58;10.70;99.90
18043;DHT22;9146;48.074;11.968;2024-03-02T15:13:26;10.60;99.90
18043;DHT22;9146;48.074;11.968;2024-03-02T15:15:53;10.60;99.90
18043;DHT22;9146;48.074;11.968;2024-03-02T15:18:20;10.50;99.90
18043;DHT22;9146;48.074;11.968;2024-03-02T15:20:46;10.50;99.90
18043;DHT22;9146;48.074;11.968;2024-03-02T15:23:13;10.50;99.90
18043;DHT22;9146;48.074;11.968;2024-03-02T15:25:42;10.40;99.90
18043;DHT22;9146;48.074;11.968;2024-03-02T15:28:08;10.40;99.90
18043;DHT22;9146;48.074;11.968;2024-03-02T15:30:35;10.30;99.90
18043;DHT22;9146;48.074;11.968;2024-03-02T15:33:03;10.30;99.90
18043;DHT22;9146;48.074;11.968;2024-03-02T15:35:30;10.30;99.90
18043;DHT22;9146;48.074;11.968;2024-03-02T15:37:57;10.20;99.90
18043;DHT22;9146;48.074;11.968;2024-03-02T15:40:24;10.20;99.90
18043;DHT22;9146;48.074;11.968;2024-03-02T15:42:52;10.10;99.90
18043;DHT22;9146;48.074;11.968;2024-03-02T15:45:19;10.00;99.90
18043;DHT22;9146;48.074;11.968;2024-03-02T15:47:46;10.00;99.90